Time;durP1;ratioP1;P1;durP2;ratioP2;P2;SDS_P1;SDS_P2;PMS_P1;PMS_P2;Temp;Humidity;BMP_temperature;BMP_pressure;BME280_temperature;BME280_humidity;BME280_pressure;Samples;Min_cycle;Max_cycle;Signal;HPM_P1;HPM_P2
2023/10/25 00:02:10;;;;;;;;;;;17.50;59.00;;;;;;4993303;28;87339;-44
2023/10/25 00:04:35;;;;;;;;;;;17.50;58.90;;;;;;4995195;28;87538;-44
2023/10/25 00:07:01;;;;;;;;;;;17.50;59.00;;;;;;4992304;28;87071;-43
2023/10/25 00:09:26;;;;;;;;;;;17.50;58.90;;;;;;4992051;28;87410;-44
2023/10/25 00:11:52;;;;;;;;;;;17.50;58.90;;;;;;4994086;28;88404;-45
2023/10/25 00:14:17;;;;;;;;;;;17.40;58.90;;;;;;4992928;28;87107;-45
2023/10/25 00:16:43;;;;;;;;;;;17.50;59.00;;;;;;4996486;28;87385;-44
2023/10/25 00:19:08;;;;;;;;;;;17.40;59.50;;;;;;4994186;28;87199;-44
2023/10/25 00:21:34;;;;;;;;;;;17.40;58.90;;;;;;4992684;28;88703;-44
2023/10/25 00:23:59;;;;;;;;;;;17.40;59.00;;;;;;4994057;28;88545;-45
2023/10/25 00:26:25;;;;;;;;;;;17.40;58.90;;;;;;4991794;28;86974;-46
2023/10/25 00:28:51;;;;;;;;;;;17.40;58.90;;;;;;4995599;28;87427;-44
2023/10/25 00:31:16;;;;;;;;;;;17.40;58.90;;;;;;4992523;28;88003;-44
2023/10/25 00:33:42;;;;;;;;;;;17.50;59.00;;;;;;4993769;28;87195;-47
2023/10/25 00:36:08;;;;;;;;;;;17.40;59.00;;;;;;4995563;28;88732;-46
2023/10/25 00:38:33;;;;;;;;;;;17.40;59.00;;;;;;4992793;28;87136;-44
2023/10/25 00:40:59;;;;;;;;;;;17.40;59.00;;;;;;4994684;28;87079;-44
2023/10/25 00:43:24;;;;;;;;;;;17.40;59.00;;;;;;4991453;28;88091;-47
2023/10/25 00:46:00;;;;;;;;;;;17.40;59.00;;;;;;4995043;28;87469;-44
2023/10/25 00:48:26;;;;;;;;;;;17.40;59.00;;;;;;4993773;28;87512;-44
2023/10/25 00:50:52;;;;;;;;;;;17.40;59.10;;;;;;4991570;28;87919;-44
2023/10/25 00:53:17;;;;;;;;;;;17.40;59.10;;;;;;4995051;28;86629;-44
2023/10/25 00:55:43;;;;;;;;;;;17.40;59.10;;;;;;4991503;28;87026;-44
2023/10/25 00:58:10;;;;;;;;;;;17.40;59.70;;;;;;4996613;28;89127;-44
2023/10/25 01:00:36;;;;;;;;;;;17.40;59.10;;;;;;4992015;28;87999;-44
2023/10/25 01:03:05;;;;;;;;;;;17.40;59.10;;;;;;4992883;28;88121;-44
2023/10/25 01:05:31;;;;;;;;;;;17.40;59.10;;;;;;4992929;28;87065;-43
2023/10/25 01:07:56;;;;;;;;;;;17.40;59.10;;;;;;4991748;28;87513;-44
2023/10/25 01:10:22;;;;;;;;;;;17.40;59.10;;;;;;4994418;28;88940;-44
2023/10/25 01:12:47;;;;;;;;;;;17.40;59.10;;;;;;4991772;28;87120;-44
2023/10/25 01:15:13;;;;;;;;;;;17.40;59.10;;;;;;4993781;28;87449;-45
2023/10/25 01:17:39;;;;;;;;;;;17.30;59.00;;;;;;4992733;28;86634;-45
2023/10/25 01:20:06;;;;;;;;;;;17.30;59.10;;;;;;4993207;28;87199;-44
2023/10/25 01:22:31;;;;;;;;;;;17.40;59.10;;;;;;4990952;28;89496;-43
2023/10/25 01:24:57;;;;;;;;;;;17.30;59.10;;;;;;4993121;28;88432;-44
2023/10/25 01:27:22;;;;;;;;;;;17.30;59.10;;;;;;4991041;28;87440;-44
2023/10/25 01:29:48;;;;;;;;;;;17.30;59.10;;;;;;4993837;28;87997;-45
2023/10/25 01:32:13;;;;;;;;;;;17.30;59.10;;;;;;4991911;28;87144;-44
2023/10/25 01:34:39;;;;;;;;;;;17.30;59.10;;;;;;4993212;28;87496;-46
2023/10/25 01:37:04;;;;;;;;;;;17.30;59.20;;;;;;4991033;28;87034;-44
2023/10/25 01:39:30;;;;;;;;;;;17.30;59.10;;;;;;4990235;28;87180;-44
2023/10/25 01:41:55;;;;;;;;;;;17.30;59.10;;;;;;4995011;28;87502;-44
2023/10/25 01:44:21;;;;;;;;;;;17.30;59.10;;;;;;4990084;28;87271;-45
2023/10/25 01:46:46;;;;;;;;;;;17.30;59.10;;;;;;4994186;28;87074;-44
2023/10/25 01:49:12;;;;;;;;;;;17.30;59.10;;;;;;4990469;28;89304;-43
2023/10/25 01:51:37;;;;;;;;;;;17.30;59.20;;;;;;4992560;28;87181;-44
2023/10/25 01:54:03;;;;;;;;;;;17.30;59.20;;;;;;4992277;28;87605;-44
2023/10/25 01:56:28;;;;;;;;;;;17.30;59.20;;;;;;4991679;28;88017;-44
2023/10/25 01:58:54;;;;;;;;;;;17.30;59.20;;;;;;4993302;28;87262;-44
2023/10/25 02:01:19;;;;;;;;;;;17.30;59.20;;;;;;4990979;28;87046;-45
2023/10/25 02:03:45;;;;;;;;;;;17.30;59.20;;;;;;5002717;28;90971;-44
2023/10/25 02:06:14;;;;;;;;;;;17.30;59.20;;;;;;4991464;28;87413;-44
2023/10/25 02:08:39;;;;;;;;;;;17.30;59.20;;;;;;4991883;28;88291;-45
2023/10/25 02:11:06;;;;;;;;;;;17.30;59.20;;;;;;4991921;28;87206;-43
2023/10/25 02:13:31;;;;;;;;;;;17.30;59.20;;;;;;4991096;28;88684;-44
2023/10/25 02:15:57;;;;;;;;;;;17.30;59.20;;;;;;4993984;28;88338;-44
2023/10/25 02:18:22;;;;;;;;;;;17.30;59.20;;;;;;4993701;28;87178;-45
2023/10/25 02:20:48;;;;;;;;;;;17.30;59.20;;;;;;4997213;28;87543;-44
2023/10/25 02:23:13;;;;;;;;;;;17.20;59.80;;;;;;4994132;28;87317;-44
2023/10/25 02:25:39;;;;;;;;;;;17.30;59.20;;;;;;4998683;28;86970;-44
2023/10/25 02:28:04;;;;;;;;;;;17.30;59.20;;;;;;4995182;28;88033;-44
2023/10/25 02:30:30;;;;;;;;;;;17.20;59.20;;;;;;4995651;28;86298;-44
2023/10/25 02:32:55;;;;;;;;;;;17.20;59.30;;;;;;4996488;28;87099;-44
2023/10/25 02:35:21;;;;;;;;;;;17.20;59.20;;;;;;4993597;28;88069;-44
2023/10/25 02:37:46;;;;;;;;;;;17.20;59.20;;;;;;4996017;28;88542;-45
2023/10/25 02:40:12;;;;;;;;;;;17.30;59.20;;;;;;4992858;28;88354;-44
2023/10/25 02:42:41;;;;;;;;;;;17.20;59.20;;;;;;4992268;28;87678;-45
2023/10/25 02:45:06;;;;;;;;;;;17.20;59.20;;;;;;4997936;28;87087;-44
2023/10/25 02:47:32;;;;;;;;;;;17.20;59.30;;;;;;4994301;28;88295;-45
2023/10/25 02:49:57;;;;;;;;;;;17.20;59.30;;;;;;4996168;28;87108;-44
2023/10/25 02:52:23;;;;;;;;;;;17.20;59.30;;;;;;4992905;28;87161;-44
2023/10/25 02:54:49;;;;;;;;;;;17.20;59.30;;;;;;4989975;28;87307;-44
2023/10/25 02:57:14;;;;;;;;;;;17.20;59.30;;;;;;4994638;28;87455;-43
2023/10/25 02:59:40;;;;;;;;;;;17.20;59.30;;;;;;4994244;28;87516;-44
2023/10/25 03:02:05;;;;;;;;;;;17.20;59.40;;;;;;4993894;28;89251;-45
2023/10/25 03:04:31;;;;;;;;;;;17.20;59.30;;;;;;4995367;28;87178;-45
2023/10/25 03:06:56;;;;;;;;;;;17.20;59.30;;;;;;4996579;28;87413;-44
2023/10/25 03:09:22;;;;;;;;;;;17.20;59.30;;;;;;4996128;28;87264;-44
2023/10/25 03:11:47;;;;;;;;;;;17.20;59.40;;;;;;4993142;28;87214;-44
2023/10/25 03:14:13;;;;;;;;;;;17.20;59.30;;;;;;4995866;28;88224;-45
2023/10/25 03:16:38;;;;;;;;;;;17.20;59.40;;;;;;4994040;28;87109;-43
2023/10/25 03:19:04;;;;;;;;;;;17.10;59.30;;;;;;4995493;28;87713;-45
2023/10/25 03:21:29;;;;;;;;;;;17.20;59.30;;;;;;4994588;28;87248;-44
2023/10/25 03:23:55;;;;;;;;;;;17.20;59.40;;;;;;4993694;28;87215;-45
2023/10/25 03:26:20;;;;;;;;;;;17.20;59.40;;;;;;4995134;28;88004;-43
2023/10/25 03:28:46;;;;;;;;;;;17.10;59.40;;;;;;4994597;28;87296;-46
2023/10/25 03:31:11;;;;;;;;;;;17.20;59.40;;;;;;4993052;28;87401;-45
2023/10/25 03:33:37;;;;;;;;;;;17.10;59.40;;;;;;4995058;28;88407;-46
2023/10/25 03:36:02;;;;;;;;;;;17.10;59.30;;;;;;4993862;28;87174;-44
2023/10/25 03:38:28;;;;;;;;;;;17.10;59.40;;;;;;4994606;28;87035;-44
2023/10/25 03:41:00;;;;;;;;;;;17.10;59.40;;;;;;4994582;28;88098;-45
2023/10/25 03:43:26;;;;;;;;;;;17.10;59.40;;;;;;4993108;28;86446;-44
2023/10/25 03:45:51;;;;;;;;;;;17.10;59.30;;;;;;4995956;28;87015;-44
2023/10/25 03:48:17;;;;;;;;;;;17.10;59.40;;;;;;4992762;28;89327;-44
2023/10/25 03:50:42;;;;;;;;;;;17.10;59.40;;;;;;4996349;28;88159;-44
2023/10/25 03:53:08;;;;;;;;;;;17.10;59.40;;;;;;4994001;28;88189;-43
2023/10/25 03:55:33;;;;;;;;;;;17.10;59.80;;;;;;4993706;28;87107;-45
2023/10/25 03:57:59;;;;;;;;;;;17.10;59.40;;;;;;4995353;28;87552;-45
2023/10/25 04:00:24;;;;;;;;;;;17.10;59.40;;;;;;4992112;28;88148;-43
2023/10/25 04:02:50;;;;;;;;;;;17.10;59.40;;;;;;4995755;28;87204;-44
2023/10/25 04:05:16;;;;;;;;;;;17.10;59.40;;;;;;4992566;28;88760;-45
2023/10/25 04:07:41;;;;;;;;;;;17.10;59.40;;;;;;4991708;28;87245;-44
2023/10/25 04:10:07;;;;;;;;;;;17.10;59.40;;;;;;4994075;28;87027;-46
2023/10/25 04:12:32;;;;;;;;;;;17.10;59.40;;;;;;4996864;28;87004;-43
2023/10/25 04:14:58;;;;;;;;;;;17.10;59.40;;;;;;4992315;28;88182;-44
2023/10/25 04:17:23;;;;;;;;;;;17.10;59.50;;;;;;4995022;28;88298;-44
2023/10/25 04:19:49;;;;;;;;;;;17.10;59.50;;;;;;4991316;28;89428;-43
2023/10/25 04:22:14;;;;;;;;;;;17.10;59.40;;;;;;4995283;28;87267;-44
2023/10/25 04:24:40;;;;;;;;;;;17.10;59.40;;;;;;4992662;28;87429;-44
2023/10/25 04:27:05;;;;;;;;;;;17.10;59.50;;;;;;4993720;28;88154;-45
2023/10/25 04:29:31;;;;;;;;;;;17.10;59.50;;;;;;4993555;28;87302;-44
2023/10/25 04:31:56;;;;;;;;;;;17.10;59.50;;;;;;4996103;28;87326;-44
2023/10/25 04:34:22;;;;;;;;;;;17.10;59.50;;;;;;4994587;28;87227;-44
2023/10/25 04:36:48;;;;;;;;;;;17.10;59.50;;;;;;4991655;28;86967;-44
2023/10/25 04:39:13;;;;;;;;;;;17.10;59.50;;;;;;4990425;28;90058;-46
2023/10/25 04:41:40;;;;;;;;;;;17.10;59.50;;;;;;4994290;28;87167;-43
2023/10/25 04:44:05;;;;;;;;;;;17.10;59.50;;;;;;4992839;28;87392;-45
2023/10/25 04:46:31;;;;;;;;;;;17.00;59.50;;;;;;4993180;28;88118;-44
2023/10/25 04:48:56;;;;;;;;;;;17.00;59.50;;;;;;4993881;28;87124;-45
2023/10/25 04:51:22;;;;;;;;;;;17.10;59.60;;;;;;4991843;28;87591;-44
2023/10/25 04:53:47;;;;;;;;;;;17.10;59.60;;;;;;4997176;28;88269;-44
2023/10/25 04:56:13;;;;;;;;;;;17.10;59.60;;;;;;4991512;28;87416;-44
2023/10/25 04:58:38;;;;;;;;;;;17.00;59.50;;;;;;4991253;28;87991;-44
2023/10/25 05:01:11;;;;;;;;;;;17.00;59.50;;;;;;4987174;28;87302;-44
2023/10/25 05:03:37;;;;;;;;;;;17.00;59.50;;;;;;4988514;28;88630;-44
2023/10/25 05:06:06;;;;;;;;;;;17.00;59.50;;;;;;4990191;28;88261;-44
2023/10/25 05:08:33;;;;;;;;;;;17.00;59.60;;;;;;4986624;28;87143;-44
2023/10/25 05:11:03;;;;;;;;;;;17.00;59.60;;;;;;4992138;28;89336;-44
2023/10/25 05:13:28;;;;;;;;;;;17.00;59.50;;;;;;4992802;28;88054;-44
2023/10/25 05:15:54;;;;;;;;;;;17.00;59.50;;;;;;4994977;28;87158;-45
2023/10/25 05:18:20;;;;;;;;;;;17.00;59.60;;;;;;4993832;28;87966;-44
2023/10/25 05:20:45;;;;;;;;;;;17.00;59.60;;;;;;4992593;28;86498;-44
2023/10/25 05:23:11;;;;;;;;;;;17.00;59.60;;;;;;4988741;28;87109;-44
2023/10/25 05:25:36;;;;;;;;;;;17.00;59.60;;;;;;4992412;28;88103;-46
2023/10/25 05:28:02;;;;;;;;;;;17.00;59.60;;;;;;4984898;28;90281;-44
2023/10/25 05:30:28;;;;;;;;;;;17.00;59.60;;;;;;4986974;28;88358;-45
2023/10/25 05:32:55;;;;;;;;;;;17.00;59.60;;;;;;4989369;28;88000;-45
2023/10/25 05:35:21;;;;;;;;;;;17.00;59.60;;;;;;4990351;28;87225;-44
2023/10/25 05:37:46;;;;;;;;;;;17.00;59.60;;;;;;4992030;28;88059;-44
2023/10/25 05:40:12;;;;;;;;;;;17.00;59.60;;;;;;4993756;28;87231;-43
2023/10/25 05:42:47;;;;;;;;;;;17.00;59.60;;;;;;4991684;28;87596;-44
2023/10/25 05:45:13;;;;;;;;;;;17.00;59.60;;;;;;4990576;28;87253;-44
2023/10/25 05:47:39;;;;;;;;;;;17.00;59.60;;;;;;4987398;28;88675;-45
2023/10/25 05:50:05;;;;;;;;;;;17.00;59.60;;;;;;4993478;28;89459;-43
2023/10/25 05:52:31;;;;;;;;;;;17.00;59.60;;;;;;4988008;28;89161;-44
2023/10/25 05:54:57;;;;;;;;;;;17.00;59.60;;;;;;4988280;28;88337;-43
2023/10/25 05:57:22;;;;;;;;;;;17.00;59.60;;;;;;4989214;28;87415;-44
2023/10/25 05:59:48;;;;;;;;;;;17.00;60.10;;;;;;4994360;28;87960;-44
2023/10/25 06:02:14;;;;;;;;;;;17.00;59.60;;;;;;4988988;28;87780;-44
2023/10/25 06:04:41;;;;;;;;;;;17.00;59.60;;;;;;4990372;28;88987;-43
2023/10/25 06:07:07;;;;;;;;;;;17.00;59.60;;;;;;4987243;28;87135;-44
2023/10/25 06:09:33;;;;;;;;;;;17.00;59.60;;;;;;4988786;28;87625;-43
2023/10/25 06:11:59;;;;;;;;;;;17.00;59.60;;;;;;4987416;28;88047;-43
2023/10/25 06:14:25;;;;;;;;;;;17.00;59.50;;;;;;4991371;28;88029;-44
2023/10/25 06:16:50;;;;;;;;;;;17.00;59.60;;;;;;4987067;28;88183;-44
2023/10/25 06:19:16;;;;;;;;;;;17.00;59.60;;;;;;4994245;28;88153;-44
2023/10/25 06:21:41;;;;;;;;;;;17.00;59.60;;;;;;4991228;28;88225;-44
2023/10/25 06:24:07;;;;;;;;;;;17.00;59.60;;;;;;4988348;28;88047;-44
2023/10/25 06:26:33;;;;;;;;;;;17.00;59.60;;;;;;4994325;28;88006;-44
2023/10/25 06:28:59;;;;;;;;;;;17.00;59.60;;;;;;4985549;28;87257;-44
2023/10/25 06:31:24;;;;;;;;;;;17.00;59.50;;;;;;4991620;28;87991;-44
2023/10/25 06:33:50;;;;;;;;;;;17.00;59.60;;;;;;4991846;28;86407;-44
2023/10/25 06:36:16;;;;;;;;;;;17.00;59.60;;;;;;4992903;28;87279;-44
2023/10/25 06:38:42;;;;;;;;;;;17.00;59.50;;;;;;4986640;28;90584;-43
2023/10/25 06:41:15;;;;;;;;;;;17.00;59.50;;;;;;4989302;28;88159;-43
2023/10/25 06:43:41;;;;;;;;;;;17.00;59.50;;;;;;4988181;28;89465;-43
2023/10/25 06:46:08;;;;;;;;;;;17.00;59.50;;;;;;4991522;28;87062;-45
2023/10/25 06:48:33;;;;;;;;;;;17.00;59.50;;;;;;4982123;28;87399;-46
2023/10/25 06:50:59;;;;;;;;;;;17.00;59.50;;;;;;4988014;28;87621;-44
2023/10/25 06:53:25;;;;;;;;;;;17.00;59.50;;;;;;4989554;28;87042;-43
2023/10/25 06:55:50;;;;;;;;;;;17.00;59.50;;;;;;4990809;28;88817;-44
2023/10/25 06:58:16;;;;;;;;;;;17.00;59.50;;;;;;4986323;28;87307;-43
2023/10/25 07:00:42;;;;;;;;;;;17.00;59.50;;;;;;4991588;28;89273;-43
2023/10/25 07:03:09;;;;;;;;;;;17.00;59.50;;;;;;4992449;28;87388;-43
2023/10/25 07:05:35;;;;;;;;;;;17.00;59.50;;;;;;4990034;28;88131;-44
2023/10/25 07:08:01;;;;;;;;;;;17.00;59.60;;;;;;4989781;28;88314;-44
2023/10/25 07:10:27;;;;;;;;;;;17.00;59.50;;;;;;4992114;28;87847;-44
2023/10/25 07:12:52;;;;;;;;;;;17.00;59.50;;;;;;4991907;28;87128;-44
2023/10/25 07:15:18;;;;;;;;;;;17.00;59.50;;;;;;4989954;28;88160;-44
2023/10/25 07:17:49;;;;;;;;;;;17.00;59.50;;;;;;4988015;28;88037;-44
2023/10/25 07:20:15;;;;;;;;;;;17.00;59.50;;;;;;4987572;28;87015;-45
2023/10/25 07:22:41;;;;;;;;;;;17.00;59.50;;;;;;4995871;28;87385;-43
2023/10/25 07:25:07;;;;;;;;;;;17.00;60.10;;;;;;4992488;28;88003;-44
2023/10/25 07:27:33;;;;;;;;;;;17.00;59.40;;;;;;4985053;28;89029;-44
2023/10/25 07:29:58;;;;;;;;;;;17.00;59.40;;;;;;4990352;28;88893;-44
2023/10/25 07:32:24;;;;;;;;;;;17.00;59.40;;;;;;4993419;28;87146;-44
2023/10/25 07:34:49;;;;;;;;;;;17.10;59.40;;;;;;4992226;28;88731;-44
2023/10/25 07:37:15;;;;;;;;;;;17.00;59.40;;;;;;4985482;28;89474;-44
2023/10/25 07:39:41;;;;;;;;;;;17.10;59.40;;;;;;4991234;28;87220;-43
2023/10/25 07:42:07;;;;;;;;;;;17.00;59.40;;;;;;4995168;28;87482;-46
2023/10/25 07:44:33;;;;;;;;;;;17.10;59.40;;;;;;4987812;28;89482;-44
2023/10/25 07:46:58;;;;;;;;;;;17.10;59.40;;;;;;4996562;28;86663;-46
2023/10/25 07:49:24;;;;;;;;;;;17.10;59.40;;;;;;4991181;28;88620;-43
2023/10/25 07:51:49;;;;;;;;;;;17.10;59.40;;;;;;4995198;28;87140;-44
2023/10/25 07:54:15;;;;;;;;;;;17.10;59.40;;;;;;4991853;28;88115;-43
2023/10/25 07:56:40;;;;;;;;;;;17.10;59.40;;;;;;4989364;28;88305;-45
2023/10/25 07:59:06;;;;;;;;;;;17.10;59.40;;;;;;4992173;28;87120;-44
2023/10/25 08:01:31;;;;;;;;;;;17.10;59.40;;;;;;4995088;28;87164;-45
2023/10/25 08:03:57;;;;;;;;;;;17.10;59.40;;;;;;4990986;28;88356;-43
2023/10/25 08:06:22;;;;;;;;;;;17.10;59.40;;;;;;4990798;28;87364;-44
2023/10/25 08:08:50;;;;;;;;;;;17.10;59.40;;;;;;4995804;28;87556;-44
2023/10/25 08:11:16;;;;;;;;;;;17.10;59.60;;;;;;4992033;28;88267;-43
2023/10/25 08:13:43;;;;;;;;;;;17.00;59.50;;;;;;4992197;28;87208;-44
2023/10/25 08:16:08;;;;;;;;;;;17.10;59.50;;;;;;4989267;28;89504;-45
2023/10/25 08:18:34;;;;;;;;;;;17.10;59.50;;;;;;4992319;28;88086;-44
2023/10/25 08:21:01;;;;;;;;;;;17.10;59.50;;;;;;4995484;28;88883;-43
2023/10/25 08:23:26;;;;;;;;;;;17.10;59.50;;;;;;4993232;28;87770;-44
2023/10/25 08:25:52;;;;;;;;;;;17.10;59.50;;;;;;4991804;28;87536;-43
2023/10/25 08:28:17;;;;;;;;;;;17.10;59.50;;;;;;4993319;28;87299;-44
2023/10/25 08:30:43;;;;;;;;;;;17.10;59.60;;;;;;4993122;28;88034;-43
2023/10/25 08:33:09;;;;;;;;;;;17.10;59.60;;;;;;4993577;28;87409;-44
2023/10/25 08:35:34;;;;;;;;;;;17.10;59.60;;;;;;4991388;28;87399;-44
2023/10/25 08:37:59;;;;;;;;;;;17.10;59.60;;;;;;4994541;28;87133;-43
2023/10/25 08:40:25;;;;;;;;;;;17.10;59.60;;;;;;4993691;28;88445;-43
2023/10/25 08:42:51;;;;;;;;;;;17.10;59.60;;;;;;4989386;28;90794;-44
2023/10/25 08:45:17;;;;;;;;;;;17.10;59.60;;;;;;4991048;28;87171;-44
2023/10/25 08:47:42;;;;;;;;;;;17.10;59.60;;;;;;4992886;28;87253;-44
2023/10/25 08:50:08;;;;;;;;;;;17.20;59.70;;;;;;4992434;28;87986;-44
2023/10/25 08:52:35;;;;;;;;;;;17.10;59.50;;;;;;4990783;28;89245;-43
2023/10/25 08:55:01;;;;;;;;;;;17.20;59.70;;;;;;4993018;28;87525;-44
2023/10/25 08:57:28;;;;;;;;;;;17.20;59.60;;;;;;4992135;28;87141;-43
2023/10/25 08:59:54;;;;;;;;;;;17.20;59.80;;;;;;4989409;28;87434;-44
2023/10/25 09:02:19;;;;;;;;;;;17.20;59.80;;;;;;4989221;28;89299;-44
2023/10/25 09:04:56;;;;;;;;;;;17.20;59.80;;;;;;4991008;28;87163;-44
2023/10/25 09:07:29;;;;;;;;;;;17.20;59.70;;;;;;4993221;28;88124;-46
2023/10/25 09:09:54;;;;;;;;;;;17.20;59.70;;;;;;4988811;28;88610;-44
2023/10/25 09:12:20;;;;;;;;;;;17.20;59.70;;;;;;4991384;28;87185;-44
2023/10/25 09:14:47;;;;;;;;;;;17.20;59.70;;;;;;4993243;28;89598;-44
2023/10/25 09:17:12;;;;;;;;;;;17.20;59.80;;;;;;4991903;28;87359;-43
2023/10/25 09:19:42;;;;;;;;;;;17.20;59.70;;;;;;4986831;28;87565;-43
2023/10/25 09:22:21;;;;;;;;;;;17.20;59.80;;;;;;4993641;28;87379;-43
2023/10/25 09:24:50;;;;;;;;;;;17.20;59.80;;;;;;4991937;28;86730;-44
2023/10/25 09:27:16;;;;;;;;;;;17.20;59.80;;;;;;4989626;28;88129;-44
2023/10/25 09:29:42;;;;;;;;;;;17.20;59.90;;;;;;4987164;28;88095;-44
2023/10/25 09:32:08;;;;;;;;;;;17.20;59.90;;;;;;4993809;28;88115;-45
2023/10/25 09:34:34;;;;;;;;;;;17.20;59.80;;;;;;4994624;28;88267;-43
2023/10/25 09:37:09;;;;;;;;;;;17.20;59.80;;;;;;4989418;28;88801;-44
2023/10/25 09:39:38;;;;;;;;;;;17.20;59.90;;;;;;4990357;28;87248;-44
2023/10/25 09:42:06;;;;;;;;;;;17.20;59.80;;;;;;4990328;28;89279;-44
2023/10/25 09:44:34;;;;;;;;;;;17.20;59.80;;;;;;4992401;28;87102;-44
2023/10/25 09:47:02;;;;;;;;;;;17.20;59.80;;;;;;4988025;28;88400;-44
2023/10/25 09:49:29;;;;;;;;;;;17.20;59.90;;;;;;4986300;28;87466;-46
2023/10/25 09:52:05;;;;;;;;;;;17.20;59.90;;;;;;4995282;28;87057;-44
2023/10/25 09:54:32;;;;;;;;;;;17.30;60.00;;;;;;4989512;28;87354;-44
2023/10/25 09:56:58;;;;;;;;;;;17.20;59.90;;;;;;4990912;28;88121;-44
2023/10/25 09:59:25;;;;;;;;;;;17.30;60.10;;;;;;4993107;28;88456;-43
2023/10/25 10:01:51;;;;;;;;;;;17.30;60.10;;;;;;4991850;28;87900;-43
2023/10/25 10:04:33;;;;;;;;;;;17.30;60.00;;;;;;4990823;28;87624;-44
2023/10/25 10:07:02;;;;;;;;;;;17.30;60.00;;;;;;4987999;28;87260;-44
2023/10/25 10:09:46;;;;;;;;;;;17.30;60.10;;;;;;4993527;28;88211;-45
2023/10/25 10:12:12;;;;;;;;;;;17.30;60.00;;;;;;4991259;28;87220;-44
2023/10/25 10:14:38;;;;;;;;;;;17.30;60.10;;;;;;4992218;28;89124;-44
2023/10/25 10:17:03;;;;;;;;;;;17.30;60.10;;;;;;4989910;28;87356;-44
2023/10/25 10:19:32;;;;;;;;;;;17.30;60.10;;;;;;4996331;28;87236;-44
2023/10/25 10:22:14;;;;;;;;;;;17.30;60.20;;;;;;4989428;28;88318;-45
2023/10/25 10:25:04;;;;;;;;;;;17.30;60.20;;;;;;4987184;28;87857;-44
2023/10/25 10:27:42;;;;;;;;;;;17.30;60.20;;;;;;4990537;28;87434;-44
2023/10/25 10:30:26;;;;;;;;;;;17.30;60.20;;;;;;4990398;28;87476;-44
2023/10/25 10:32:54;;;;;;;;;;;17.30;60.20;;;;;;4986217;28;87277;-45
2023/10/25 10:35:23;;;;;;;;;;;17.30;60.10;;;;;;4990005;28;87457;-44
2023/10/25 10:37:55;;;;;;;;;;;17.30;60.10;;;;;;4991776;28;89370;-44
2023/10/25 10:40:21;;;;;;;;;;;17.30;60.20;;;;;;4999407;28;86517;-44
2023/10/25 10:42:46;;;;;;;;;;;17.30;60.10;;;;;;4994044;28;87180;-44
2023/10/25 10:45:19;;;;;;;;;;;17.30;60.20;;;;;;4995439;28;87156;-43
2023/10/25 10:47:50;;;;;;;;;;;17.40;60.30;;;;;;4994435;28;88844;-44
2023/10/25 10:50:23;;;;;;;;;;;17.30;60.20;;;;;;4992275;28;88331;-44
2023/10/25 10:52:50;;;;;;;;;;;17.40;60.30;;;;;;4994638;28;87648;-44
2023/10/25 10:55:17;;;;;;;;;;;17.40;60.30;;;;;;4993274;28;87400;-45
2023/10/25 10:57:43;;;;;;;;;;;17.40;60.30;;;;;;4995815;28;87338;-47
2023/10/25 11:00:10;;;;;;;;;;;17.30;60.30;;;;;;4990506;28;87174;-44
2023/10/25 11:02:39;;;;;;;;;;;17.40;60.40;;;;;;4995741;28;87710;-44
2023/10/25 11:05:05;;;;;;;;;;;17.40;60.50;;;;;;4996254;28;86409;-44
2023/10/25 11:07:30;;;;;;;;;;;17.30;60.30;;;;;;4998513;28;89543;-44
2023/10/25 11:09:56;;;;;;;;;;;17.40;60.40;;;;;;4992848;28;88993;-44
2023/10/25 11:12:22;;;;;;;;;;;17.40;60.50;;;;;;4992029;28;88073;-44
2023/10/25 11:14:48;;;;;;;;;;;17.40;60.40;;;;;;4995960;28;88487;-45
2023/10/25 11:17:14;;;;;;;;;;;17.40;60.30;;;;;;4992832;28;88131;-44
2023/10/25 11:19:41;;;;;;;;;;;17.40;60.40;;;;;;4993436;28;87091;-45
2023/10/25 11:22:07;;;;;;;;;;;17.40;60.40;;;;;;4992520;28;87577;-44
2023/10/25 11:24:38;;;;;;;;;;;17.40;60.30;;;;;;4997588;28;88456;-44
2023/10/25 11:27:04;;;;;;;;;;;17.40;60.40;;;;;;4989614;28;88007;-44
2023/10/25 11:29:33;;;;;;;;;;;17.40;60.40;;;;;;4988584;28;87440;-45
2023/10/25 11:32:06;;;;;;;;;;;17.50;60.50;;;;;;4995176;28;87138;-43
2023/10/25 11:34:34;;;;;;;;;;;17.40;60.40;;;;;;4991030;28;88815;-43
2023/10/25 11:37:03;;;;;;;;;;;17.40;60.40;;;;;;4990661;28;88784;-43
2023/10/25 11:39:33;;;;;;;;;;;17.40;60.40;;;;;;4990507;28;88272;-43
2023/10/25 11:41:59;;;;;;;;;;;17.40;60.40;;;;;;4992991;28;88953;-44
2023/10/25 11:44:25;;;;;;;;;;;17.40;60.50;;;;;;4994648;28;88240;-44
2023/10/25 11:46:52;;;;;;;;;;;17.50;60.50;;;;;;4991658;28;87232;-44
2023/10/25 11:49:19;;;;;;;;;;;17.50;60.40;;;;;;4989351;28;87432;-44
2023/10/25 11:52:03;;;;;;;;;;;17.50;60.50;;;;;;4993209;28;87211;-44
2023/10/25 11:54:30;;;;;;;;;;;17.50;60.50;;;;;;4993248;28;88669;-46
2023/10/25 11:56:56;;;;;;;;;;;17.50;60.50;;;;;;4989139;28;88012;-46
2023/10/25 11:59:21;;;;;;;;;;;17.50;60.50;;;;;;4993969;28;87155;-44
2023/10/25 12:01:47;;;;;;;;;;;17.50;60.60;;;;;;4991368;28;88595;-44
2023/10/25 12:04:13;;;;;;;;;;;17.50;60.50;;;;;;4990272;28;88076;-44
2023/10/25 12:06:38;;;;;;;;;;;17.50;60.50;;;;;;4989964;28;87220;-44
2023/10/25 12:09:04;;;;;;;;;;;17.50;60.50;;;;;;4994487;28;88086;-44
2023/10/25 12:11:29;;;;;;;;;;;17.50;60.40;;;;;;4991937;28;87149;-44
2023/10/25 12:13:55;;;;;;;;;;;17.50;60.50;;;;;;4989466;28;87400;-45
2023/10/25 12:16:20;;;;;;;;;;;17.50;60.50;;;;;;4991268;28;87985;-44
2023/10/25 12:18:46;;;;;;;;;;;17.50;60.50;;;;;;4991483;28;86364;-44
2023/10/25 12:21:11;;;;;;;;;;;17.50;60.50;;;;;;4993733;28;87070;-43
2023/10/25 12:23:37;;;;;;;;;;;17.50;60.40;;;;;;4984941;28;88645;-45
2023/10/25 12:26:02;;;;;;;;;;;17.50;60.60;;;;;;4986668;28;88925;-45
2023/10/25 12:28:28;;;;;;;;;;;17.60;60.60;;;;;;4991771;28;88243;-44
2023/10/25 12:30:53;;;;;;;;;;;17.60;60.60;;;;;;4993042;28;87987;-45
2023/10/25 12:33:19;;;;;;;;;;;17.60;60.60;;;;;;4990444;28;88000;-44
2023/10/25 12:35:45;;;;;;;;;;;17.60;60.60;;;;;;4990585;28;88256;-44
2023/10/25 12:38:10;;;;;;;;;;;17.60;60.50;;;;;;4992860;28;87874;-43
2023/10/25 12:40:36;;;;;;;;;;;17.50;60.60;;;;;;4990430;28;88615;-44
2023/10/25 12:43:01;;;;;;;;;;;17.60;60.60;;;;;;4990287;28;86748;-44
2023/10/25 12:45:31;;;;;;;;;;;17.60;60.60;;;;;;4991253;28;87292;-44
2023/10/25 12:47:56;;;;;;;;;;;17.60;60.60;;;;;;4991345;28;88278;-45
2023/10/25 12:50:22;;;;;;;;;;;17.60;60.60;;;;;;4993861;28;90007;-44
2023/10/25 12:52:47;;;;;;;;;;;17.60;60.70;;;;;;4978543;27;87893;-43
2023/10/25 12:55:13;;;;;;;;;;;17.60;60.70;;;;;;4993463;28;88273;-44
2023/10/25 12:57:38;;;;;;;;;;;17.60;60.70;;;;;;4987717;28;88903;-44
2023/10/25 13:00:05;;;;;;;;;;;17.60;60.70;;;;;;4993957;28;87599;-46
2023/10/25 13:02:30;;;;;;;;;;;17.60;60.70;;;;;;4989237;28;89813;-44
2023/10/25 13:04:56;;;;;;;;;;;17.60;61.30;;;;;;4992641;28;87142;-44
2023/10/25 13:07:21;;;;;;;;;;;17.60;60.80;;;;;;4989731;28;86612;-45
2023/10/25 13:09:47;;;;;;;;;;;17.60;60.80;;;;;;4985483;28;88915;-43
2023/10/25 13:12:12;;;;;;;;;;;17.60;60.90;;;;;;4994536;28;87208;-44
2023/10/25 13:14:38;;;;;;;;;;;17.70;60.80;;;;;;4993064;28;88959;-44
2023/10/25 13:17:03;;;;;;;;;;;17.60;60.80;;;;;;4644706;27;10000616;-44
2023/10/25 13:19:29;;;;;;;;;;;17.60;60.90;;;;;;4990299;28;87071;-45
2023/10/25 13:21:55;;;;;;;;;;;17.60;60.90;;;;;;4986823;28;87162;-44
2023/10/25 13:24:20;;;;;;;;;;;17.60;60.90;;;;;;4989482;28;87119;-44
2023/10/25 13:26:46;;;;;;;;;;;17.70;61.00;;;;;;4990752;28;87139;-44
2023/10/25 13:29:11;;;;;;;;;;;17.70;60.90;;;;;;4990060;28;87809;-45
2023/10/25 13:31:37;;;;;;;;;;;17.70;60.90;;;;;;4989866;28;86408;-44
2023/10/25 13:34:02;;;;;;;;;;;17.70;61.00;;;;;;4995992;28;87191;-45
2023/10/25 13:36:28;;;;;;;;;;;17.70;61.00;;;;;;4988169;28;88191;-44
2023/10/25 13:38:54;;;;;;;;;;;17.70;61.00;;;;;;4986183;28;89238;-43
2023/10/25 13:41:19;;;;;;;;;;;17.70;61.10;;;;;;4990455;28;87275;-45
2023/10/25 13:43:45;;;;;;;;;;;17.70;61.50;;;;;;4992365;28;88566;-45
2023/10/25 13:46:11;;;;;;;;;;;17.70;61.00;;;;;;4990383;28;88126;-44
2023/10/25 13:48:38;;;;;;;;;;;17.70;61.10;;;;;;4988841;28;87701;-44
2023/10/25 13:51:03;;;;;;;;;;;17.70;61.00;;;;;;4993178;28;87443;-44
2023/10/25 13:53:29;;;;;;;;;;;17.70;61.00;;;;;;4988272;28;88252;-44
2023/10/25 13:55:55;;;;;;;;;;;17.70;61.00;;;;;;4992896;28;86499;-44
2023/10/25 13:58:20;;;;;;;;;;;17.70;61.00;;;;;;4988848;28;88100;-44
2023/10/25 14:00:46;;;;;;;;;;;17.80;61.10;;;;;;4992107;28;87082;-44
2023/10/25 14:03:12;;;;;;;;;;;17.70;61.00;;;;;;4990830;28;88601;-44
2023/10/25 14:05:41;;;;;;;;;;;17.80;61.00;;;;;;4988356;28;88397;-44
2023/10/25 14:08:08;;;;;;;;;;;17.70;61.00;;;;;;4989071;28;87094;-44
2023/10/25 14:10:35;;;;;;;;;;;17.70;61.10;;;;;;4989706;28;88714;-44
2023/10/25 14:13:00;;;;;;;;;;;17.80;61.10;;;;;;4992105;28;89375;-44